sensor_id;sensor_type;location;lat;lon;timestamp;P1;durP1;ratioP1;P2;durP2;ratioP2
10851;SDS011;5479;52.046;6.314;2023-05-20T00:01:14;8.33;;;4.13;;
10851;SDS011;5479;52.046;6.314;2023-05-20T00:03:42;8.63;;;4.20;;
10851;SDS011;5479;52.046;6.314;2023-05-20T00:06:11;8.43;;;3.63;;
10851;SDS011;5479;52.046;6.314;2023-05-20T00:08:39;7.10;;;4.27;;
10851;SDS011;5479;52.046;6.314;2023-05-20T00:11:07;7.43;;;4.07;;
10851;SDS011;5479;52.046;6.314;2023-05-20T00:13:35;7.93;;;4.10;;
10851;SDS011;5479;52.046;6.314;2023-05-20T00:16:03;7.63;;;4.40;;
10851;SDS011;5479;52.046;6.314;2023-05-20T00:18:33;8.77;;;4.60;;
10851;SDS011;5479;52.046;6.314;2023-05-20T00:21:01;6.73;;;4.23;;
10851;SDS011;5479;52.046;6.314;2023-05-20T00:23:30;7.37;;;4.30;;
10851;SDS011;5479;52.046;6.314;2023-05-20T00:25:58;7.90;;;4.40;;
10851;SDS011;5479;52.046;6.314;2023-05-20T00:28:25;8.53;;;4.40;;
10851;SDS011;5479;52.046;6.314;2023-05-20T00:30:53;7.60;;;4.27;;
10851;SDS011;5479;52.046;6.314;2023-05-20T00:33:21;6.70;;;4.40;;
10851;SDS011;5479;52.046;6.314;2023-05-20T00:35:51;9.83;;;5.00;;
10851;SDS011;5479;52.046;6.314;2023-05-20T00:38:19;8.50;;;4.40;;
10851;SDS011;5479;52.046;6.314;2023-05-20T00:40:47;8.00;;;4.50;;
10851;SDS011;5479;52.046;6.314;2023-05-20T00:43:16;9.23;;;4.67;;
10851;SDS011;5479;52.046;6.314;2023-05-20T00:45:45;10.00;;;4.83;;
10851;SDS011;5479;52.046;6.314;2023-05-20T00:48:13;8.30;;;4.40;;
10851;SDS011;5479;52.046;6.314;2023-05-20T00:50:41;9.53;;;4.67;;
10851;SDS011;5479;52.046;6.314;2023-05-20T00:53:11;11.13;;;4.70;;
10851;SDS011;5479;52.046;6.314;2023-05-20T00:55:39;9.17;;;4.77;;
10851;SDS011;5479;52.046;6.314;2023-05-20T00:58:07;9.53;;;4.70;;
10851;SDS011;5479;52.046;6.314;2023-05-20T01:00:35;9.33;;;4.73;;
10851;SDS011;5479;52.046;6.314;2023-05-20T01:03:02;11.17;;;4.90;;
10851;SDS011;5479;52.046;6.314;2023-05-20T01:05:31;8.93;;;4.83;;
10851;SDS011;5479;52.046;6.314;2023-05-20T01:07:59;7.47;;;4.30;;
10851;SDS011;5479;52.046;6.314;2023-05-20T01:10:28;9.20;;;4.90;;
10851;SDS011;5479;52.046;6.314;2023-05-20T01:12:59;9.00;;;4.67;;
10851;SDS011;5479;52.046;6.314;2023-05-20T01:15:32;9.30;;;4.80;;
10851;SDS011;5479;52.046;6.314;2023-05-20T01:18:00;8.67;;;5.10;;
10851;SDS011;5479;52.046;6.314;2023-05-20T01:20:31;8.40;;;4.70;;
10851;SDS011;5479;52.046;6.314;2023-05-20T01:23:01;8.57;;;4.50;;
10851;SDS011;5479;52.046;6.314;2023-05-20T01:25:30;9.93;;;4.70;;
10851;SDS011;5479;52.046;6.314;2023-05-20T01:27:58;9.47;;;5.00;;
10851;SDS011;5479;52.046;6.314;2023-05-20T01:30:27;10.67;;;4.70;;
10851;SDS011;5479;52.046;6.314;2023-05-20T01:32:58;8.00;;;4.20;;
10851;SDS011;5479;52.046;6.314;2023-05-20T01:35:32;8.97;;;4.60;;
10851;SDS011;5479;52.046;6.314;2023-05-20T01:38:02;8.00;;;3.90;;
10851;SDS011;5479;52.046;6.314;2023-05-20T01:40:32;8.50;;;4.20;;
10851;SDS011;5479;52.046;6.314;2023-05-20T01:43:01;9.03;;;4.27;;
10851;SDS011;5479;52.046;6.314;2023-05-20T01:45:29;6.57;;;4.30;;
10851;SDS011;5479;52.046;6.314;2023-05-20T01:47:57;8.90;;;4.73;;
10851;SDS011;5479;52.046;6.314;2023-05-20T01:50:26;8.33;;;4.40;;
10851;SDS011;5479;52.046;6.314;2023-05-20T01:52:54;10.17;;;4.90;;
10851;SDS011;5479;52.046;6.314;2023-05-20T01:55:23;10.63;;;4.77;;
10851;SDS011;5479;52.046;6.314;2023-05-20T01:57:51;8.77;;;4.43;;
10851;SDS011;5479;52.046;6.314;2023-05-20T02:00:20;8.83;;;4.30;;
10851;SDS011;5479;52.046;6.314;2023-05-20T02:02:48;8.77;;;4.40;;
10851;SDS011;5479;52.046;6.314;2023-05-20T02:05:16;9.33;;;4.43;;
10851;SDS011;5479;52.046;6.314;2023-05-20T02:07:44;7.47;;;4.53;;
10851;SDS011;5479;52.046;6.314;2023-05-20T02:10:12;6.57;;;3.90;;
10851;SDS011;5479;52.046;6.314;2023-05-20T02:12:41;6.53;;;4.40;;
10851;SDS011;5479;52.046;6.314;2023-05-20T02:15:09;7.70;;;4.63;;
10851;SDS011;5479;52.046;6.314;2023-05-20T02:17:37;8.80;;;4.50;;
10851;SDS011;5479;52.046;6.314;2023-05-20T02:20:06;6.90;;;4.53;;
10851;SDS011;5479;52.046;6.314;2023-05-20T02:22:35;8.33;;;4.23;;
10851;SDS011;5479;52.046;6.314;2023-05-20T02:25:04;7.20;;;4.50;;
10851;SDS011;5479;52.046;6.314;2023-05-20T02:27:32;7.10;;;4.20;;
10851;SDS011;5479;52.046;6.314;2023-05-20T02:30:01;8.03;;;4.40;;
10851;SDS011;5479;52.046;6.314;2023-05-20T02:32:29;6.30;;;4.37;;
10851;SDS011;5479;52.046;6.314;2023-05-20T02:34:58;8.23;;;4.70;;
10851;SDS011;5479;52.046;6.314;2023-05-20T02:37:26;9.97;;;4.53;;
10851;SDS011;5479;52.046;6.314;2023-05-20T02:39:55;7.37;;;4.30;;
10851;SDS011;5479;52.046;6.314;2023-05-20T02:42:22;8.23;;;4.47;;
10851;SDS011;5479;52.046;6.314;2023-05-20T02:44:50;8.83;;;4.47;;
10851;SDS011;5479;52.046;6.314;2023-05-20T02:47:23;7.73;;;4.80;;
10851;SDS011;5479;52.046;6.314;2023-05-20T02:49:51;7.70;;;4.50;;
10851;SDS011;5479;52.046;6.314;2023-05-20T02:52:19;7.43;;;4.10;;
10851;SDS011;5479;52.046;6.314;2023-05-20T02:54:47;8.83;;;4.83;;
10851;SDS011;5479;52.046;6.314;2023-05-20T02:57:15;9.00;;;4.63;;
10851;SDS011;5479;52.046;6.314;2023-05-20T02:59:43;9.47;;;4.80;;
10851;SDS011;5479;52.046;6.314;2023-05-20T03:02:11;7.57;;;4.40;;
10851;SDS011;5479;52.046;6.314;2023-05-20T03:04:41;7.70;;;4.20;;
10851;SDS011;5479;52.046;6.314;2023-05-20T03:07:09;8.03;;;4.40;;
10851;SDS011;5479;52.046;6.314;2023-05-20T03:09:37;8.20;;;4.23;;
10851;SDS011;5479;52.046;6.314;2023-05-20T03:12:05;8.90;;;4.80;;
10851;SDS011;5479;52.046;6.314;2023-05-20T03:14:33;7.07;;;4.27;;
10851;SDS011;5479;52.046;6.314;2023-05-20T03:17:01;8.77;;;4.37;;
10851;SDS011;5479;52.046;6.314;2023-05-20T03:19:29;8.47;;;4.20;;
10851;SDS011;5479;52.046;6.314;2023-05-20T03:21:59;7.60;;;4.53;;
10851;SDS011;5479;52.046;6.314;2023-05-20T03:24:27;7.90;;;4.57;;
10851;SDS011;5479;52.046;6.314;2023-05-20T03:26:55;6.83;;;4.23;;
10851;SDS011;5479;52.046;6.314;2023-05-20T03:29:23;9.50;;;4.73;;
10851;SDS011;5479;52.046;6.314;2023-05-20T03:31:51;7.97;;;4.27;;
10851;SDS011;5479;52.046;6.314;2023-05-20T03:34:20;7.47;;;4.77;;
10851;SDS011;5479;52.046;6.314;2023-05-20T03:36:49;7.73;;;4.03;;
10851;SDS011;5479;52.046;6.314;2023-05-20T03:39:19;8.30;;;5.10;;
10851;SDS011;5479;52.046;6.314;2023-05-20T03:41:47;6.67;;;4.07;;
10851;SDS011;5479;52.046;6.314;2023-05-20T03:44:15;6.33;;;4.20;;
10851;SDS011;5479;52.046;6.314;2023-05-20T03:46:44;6.67;;;4.10;;
10851;SDS011;5479;52.046;6.314;2023-05-20T03:49:12;7.33;;;4.40;;
10851;SDS011;5479;52.046;6.314;2023-05-20T03:51:40;7.43;;;4.43;;
10851;SDS011;5479;52.046;6.314;2023-05-20T03:54:08;8.83;;;4.63;;
10851;SDS011;5479;52.046;6.314;2023-05-20T03:56:37;8.33;;;4.70;;
10851;SDS011;5479;52.046;6.314;2023-05-20T03:59:05;7.57;;;4.40;;
10851;SDS011;5479;52.046;6.314;2023-05-20T04:01:33;7.47;;;4.13;;
10851;SDS011;5479;52.046;6.314;2023-05-20T04:04:02;6.10;;;4.13;;
10851;SDS011;5479;52.046;6.314;2023-05-20T04:06:31;6.53;;;4.10;;
10851;SDS011;5479;52.046;6.314;2023-05-20T04:08:59;8.67;;;4.53;;
10851;SDS011;5479;52.046;6.314;2023-05-20T04:11:27;6.57;;;3.90;;
10851;SDS011;5479;52.046;6.314;2023-05-20T04:13:56;8.20;;;4.30;;
10851;SDS011;5479;52.046;6.314;2023-05-20T04:16:25;9.30;;;4.43;;
10851;SDS011;5479;52.046;6.314;2023-05-20T04:18:55;6.10;;;4.17;;
10851;SDS011;5479;52.046;6.314;2023-05-20T04:21:24;6.73;;;4.37;;
10851;SDS011;5479;52.046;6.314;2023-05-20T04:23:52;8.00;;;4.07;;
10851;SDS011;5479;52.046;6.314;2023-05-20T04:26:20;6.10;;;4.03;;
10851;SDS011;5479;52.046;6.314;2023-05-20T04:28:48;6.53;;;3.73;;
10851;SDS011;5479;52.046;6.314;2023-05-20T04:31:18;8.17;;;4.00;;
10851;SDS011;5479;52.046;6.314;2023-05-20T04:33:46;7.60;;;3.83;;
10851;SDS011;5479;52.046;6.314;2023-05-20T04:36:14;7.03;;;3.87;;
10851;SDS011;5479;52.046;6.314;2023-05-20T04:38:42;8.10;;;3.90;;
10851;SDS011;5479;52.046;6.314;2023-05-20T04:41:11;7.47;;;3.87;;
10851;SDS011;5479;52.046;6.314;2023-05-20T04:43:39;7.53;;;3.97;;
10851;SDS011;5479;52.046;6.314;2023-05-20T04:46:07;7.10;;;3.60;;
10851;SDS011;5479;52.046;6.314;2023-05-20T04:48:36;7.40;;;3.70;;
10851;SDS011;5479;52.046;6.314;2023-05-20T04:51:04;6.67;;;4.30;;
10851;SDS011;5479;52.046;6.314;2023-05-20T04:53:32;6.63;;;3.97;;
10851;SDS011;5479;52.046;6.314;2023-05-20T04:56:01;7.57;;;4.07;;
10851;SDS011;5479;52.046;6.314;2023-05-20T04:58:29;8.70;;;3.97;;
10851;SDS011;5479;52.046;6.314;2023-05-20T05:00:58;5.90;;;3.63;;
10851;SDS011;5479;52.046;6.314;2023-05-20T05:03:27;7.10;;;4.23;;
10851;SDS011;5479;52.046;6.314;2023-05-20T05:05:57;6.23;;;3.90;;
10851;SDS011;5479;52.046;6.314;2023-05-20T05:08:25;6.87;;;3.73;;
10851;SDS011;5479;52.046;6.314;2023-05-20T05:10:53;6.13;;;3.73;;
10851;SDS011;5479;52.046;6.314;2023-05-20T05:13:21;5.90;;;3.53;;
10851;SDS011;5479;52.046;6.314;2023-05-20T05:15:56;6.37;;;3.70;;
10851;SDS011;5479;52.046;6.314;2023-05-20T05:18:25;5.37;;;3.30;;
10851;SDS011;5479;52.046;6.314;2023-05-20T05:20:59;7.97;;;3.60;;
10851;SDS011;5479;52.046;6.314;2023-05-20T05:23:28;6.07;;;3.53;;
10851;SDS011;5479;52.046;6.314;2023-05-20T05:25:56;5.67;;;3.50;;
10851;SDS011;5479;52.046;6.314;2023-05-20T05:28:24;5.27;;;3.20;;
10851;SDS011;5479;52.046;6.314;2023-05-20T05:30:52;8.00;;;3.73;;
10851;SDS011;5479;52.046;6.314;2023-05-20T05:33:21;6.07;;;3.93;;
10851;SDS011;5479;52.046;6.314;2023-05-20T05:35:49;5.93;;;3.60;;
10851;SDS011;5479;52.046;6.314;2023-05-20T05:38:18;5.93;;;3.43;;
10851;SDS011;5479;52.046;6.314;2023-05-20T05:40:46;8.03;;;3.63;;
10851;SDS011;5479;52.046;6.314;2023-05-20T05:43:14;5.20;;;3.17;;
10851;SDS011;5479;52.046;6.314;2023-05-20T05:45:42;5.20;;;3.20;;
10851;SDS011;5479;52.046;6.314;2023-05-20T05:48:10;4.90;;;3.13;;
10851;SDS011;5479;52.046;6.314;2023-05-20T05:50:37;5.63;;;3.23;;
10851;SDS011;5479;52.046;6.314;2023-05-20T05:53:05;5.00;;;3.00;;
10851;SDS011;5479;52.046;6.314;2023-05-20T05:55:34;5.90;;;3.73;;
10851;SDS011;5479;52.046;6.314;2023-05-20T05:58:03;6.40;;;3.30;;
10851;SDS011;5479;52.046;6.314;2023-05-20T06:00:31;5.87;;;3.30;;
10851;SDS011;5479;52.046;6.314;2023-05-20T06:02:59;5.30;;;3.57;;
10851;SDS011;5479;52.046;6.314;2023-05-20T06:05:27;6.37;;;3.37;;
10851;SDS011;5479;52.046;6.314;2023-05-20T06:07:55;7.23;;;3.43;;
10851;SDS011;5479;52.046;6.314;2023-05-20T06:10:23;5.03;;;3.20;;
10851;SDS011;5479;52.046;6.314;2023-05-20T06:12:52;5.80;;;3.17;;
10851;SDS011;5479;52.046;6.314;2023-05-20T06:15:20;5.80;;;3.40;;
10851;SDS011;5479;52.046;6.314;2023-05-20T06:17:48;4.80;;;3.13;;
10851;SDS011;5479;52.046;6.314;2023-05-20T06:20:16;5.60;;;3.50;;
10851;SDS011;5479;52.046;6.314;2023-05-20T06:22:44;4.63;;;3.03;;
10851;SDS011;5479;52.046;6.314;2023-05-20T06:25:12;5.30;;;3.20;;
10851;SDS011;5479;52.046;6.314;2023-05-20T06:27:40;4.57;;;3.13;;
10851;SDS011;5479;52.046;6.314;2023-05-20T06:30:10;6.80;;;3.40;;
10851;SDS011;5479;52.046;6.314;2023-05-20T06:32:39;6.10;;;3.37;;
10851;SDS011;5479;52.046;6.314;2023-05-20T06:35:07;6.50;;;3.10;;
10851;SDS011;5479;52.046;6.314;2023-05-20T06:37:35;6.30;;;3.00;;
10851;SDS011;5479;52.046;6.314;2023-05-20T06:40:04;4.70;;;3.10;;
10851;SDS011;5479;52.046;6.314;2023-05-20T06:42:34;4.10;;;2.70;;
10851;SDS011;5479;52.046;6.314;2023-05-20T06:45:02;5.47;;;3.40;;
10851;SDS011;5479;52.046;6.314;2023-05-20T06:47:31;7.03;;;3.10;;
10851;SDS011;5479;52.046;6.314;2023-05-20T06:50:00;5.77;;;3.20;;
10851;SDS011;5479;52.046;6.314;2023-05-20T06:52:28;8.17;;;3.27;;
10851;SDS011;5479;52.046;6.314;2023-05-20T06:54:56;5.22;;;3.10;;
10851;SDS011;5479;52.046;6.314;2023-05-20T06:57:24;4.95;;;2.97;;
10851;SDS011;5479;52.046;6.314;2023-05-20T06:59:52;5.13;;;3.20;;
10851;SDS011;5479;52.046;6.314;2023-05-20T07:02:20;5.03;;;3.10;;
10851;SDS011;5479;52.046;6.314;2023-05-20T07:04:49;7.13;;;3.20;;
10851;SDS011;5479;52.046;6.314;2023-05-20T07:07:17;4.85;;;2.92;;
10851;SDS011;5479;52.046;6.314;2023-05-20T07:09:45;5.97;;;3.25;;
10851;SDS011;5479;52.046;6.314;2023-05-20T07:12:13;5.53;;;2.85;;
10851;SDS011;5479;52.046;6.314;2023-05-20T07:14:41;5.60;;;3.20;;
10851;SDS011;5479;52.046;6.314;2023-05-20T07:17:09;6.07;;;3.22;;
10851;SDS011;5479;52.046;6.314;2023-05-20T07:19:37;5.78;;;3.40;;
10851;SDS011;5479;52.046;6.314;2023-05-20T07:22:07;4.93;;;3.20;;
10851;SDS011;5479;52.046;6.314;2023-05-20T07:24:35;6.20;;;3.72;;
10851;SDS011;5479;52.046;6.314;2023-05-20T07:27:03;6.32;;;3.60;;
10851;SDS011;5479;52.046;6.314;2023-05-20T07:29:31;7.20;;;3.83;;
10851;SDS011;5479;52.046;6.314;2023-05-20T07:32:00;6.90;;;3.67;;
10851;SDS011;5479;52.046;6.314;2023-05-20T07:34:28;6.80;;;3.53;;
10851;SDS011;5479;52.046;6.314;2023-05-20T07:36:56;4.80;;;3.50;;
10851;SDS011;5479;52.046;6.314;2023-05-20T07:39:26;7.93;;;3.30;;
10851;SDS011;5479;52.046;6.314;2023-05-20T07:41:54;6.20;;;3.40;;
10851;SDS011;5479;52.046;6.314;2023-05-20T07:44:22;7.55;;;3.42;;
10851;SDS011;5479;52.046;6.314;2023-05-20T07:46:51;6.32;;;3.40;;
10851;SDS011;5479;52.046;6.314;2023-05-20T07:49:20;6.47;;;3.78;;
10851;SDS011;5479;52.046;6.314;2023-05-20T07:51:48;5.53;;;3.65;;
10851;SDS011;5479;52.046;6.314;2023-05-20T07:54:16;7.60;;;3.30;;
10851;SDS011;5479;52.046;6.314;2023-05-20T07:56:45;6.63;;;3.47;;
10851;SDS011;5479;52.046;6.314;2023-05-20T07:59:14;5.65;;;3.53;;
10851;SDS011;5479;52.046;6.314;2023-05-20T08:01:42;8.88;;;3.47;;
10851;SDS011;5479;52.046;6.314;2023-05-20T08:04:09;5.10;;;3.20;;
10851;SDS011;5479;52.046;6.314;2023-05-20T08:06:37;5.28;;;3.35;;
10851;SDS011;5479;52.046;6.314;2023-05-20T08:09:06;5.78;;;3.40;;
10851;SDS011;5479;52.046;6.314;2023-05-20T08:11:34;5.28;;;3.25;;
10851;SDS011;5479;52.046;6.314;2023-05-20T08:14:03;5.78;;;3.42;;
10851;SDS011;5479;52.046;6.314;2023-05-20T08:16:31;6.00;;;3.28;;
10851;SDS011;5479;52.046;6.314;2023-05-20T08:18:59;5.22;;;3.00;;
10851;SDS011;5479;52.046;6.314;2023-05-20T08:21:27;5.80;;;3.10;;
10851;SDS011;5479;52.046;6.314;2023-05-20T08:23:55;4.90;;;3.15;;
10851;SDS011;5479;52.046;6.314;2023-05-20T08:26:24;5.63;;;3.08;;
10851;SDS011;5479;52.046;6.314;2023-05-20T08:28:52;4.03;;;2.83;;
10851;SDS011;5479;52.046;6.314;2023-05-20T08:31:21;4.57;;;2.88;;
10851;SDS011;5479;52.046;6.314;2023-05-20T08:33:49;5.38;;;3.13;;
10851;SDS011;5479;52.046;6.314;2023-05-20T08:36:17;4.95;;;2.80;;
10851;SDS011;5479;52.046;6.314;2023-05-20T08:38:46;5.13;;;2.80;;
10851;SDS011;5479;52.046;6.314;2023-05-20T08:41:14;4.40;;;2.88;;
10851;SDS011;5479;52.046;6.314;2023-05-20T08:43:42;6.30;;;2.78;;
10851;SDS011;5479;52.046;6.314;2023-05-20T08:46:11;6.22;;;2.85;;
10851;SDS011;5479;52.046;6.314;2023-05-20T08:48:40;4.60;;;2.58;;
10851;SDS011;5479;52.046;6.314;2023-05-20T08:51:08;4.70;;;2.70;;
10851;SDS011;5479;52.046;6.314;2023-05-20T08:53:37;5.03;;;2.78;;
10851;SDS011;5479;52.046;6.314;2023-05-20T08:56:06;4.88;;;2.67;;
10851;SDS011;5479;52.046;6.314;2023-05-20T08:58:36;4.50;;;2.80;;
10851;SDS011;5479;52.046;6.314;2023-05-20T09:01:04;5.45;;;2.88;;
10851;SDS011;5479;52.046;6.314;2023-05-20T09:03:33;4.25;;;2.45;;
10851;SDS011;5479;52.046;6.314;2023-05-20T09:06:06;5.15;;;2.28;;
10851;SDS011;5479;52.046;6.314;2023-05-20T09:08:35;5.07;;;2.63;;
10851;SDS011;5479;52.046;6.314;2023-05-20T09:11:03;4.68;;;2.38;;
10851;SDS011;5479;52.046;6.314;2023-05-20T09:13:32;4.68;;;2.80;;
10851;SDS011;5479;52.046;6.314;2023-05-20T09:16:00;5.90;;;2.47;;
10851;SDS011;5479;52.046;6.314;2023-05-20T09:18:28;6.85;;;3.13;;
10851;SDS011;5479;52.046;6.314;2023-05-20T09:20:57;5.72;;;2.78;;
10851;SDS011;5479;52.046;6.314;2023-05-20T09:23:27;7.53;;;2.80;;
10851;SDS011;5479;52.046;6.314;2023-05-20T09:25:56;6.28;;;2.90;;
10851;SDS011;5479;52.046;6.314;2023-05-20T09:28:28;6.65;;;2.80;;
10851;SDS011;5479;52.046;6.314;2023-05-20T09:30:56;5.68;;;2.75;;
10851;SDS011;5479;52.046;6.314;2023-05-20T09:33:26;5.82;;;2.83;;
10851;SDS011;5479;52.046;6.314;2023-05-20T09:36:00;4.07;;;2.60;;
10851;SDS011;5479;52.046;6.314;2023-05-20T09:38:32;6.00;;;2.53;;
10851;SDS011;5479;52.046;6.314;2023-05-20T09:41:05;8.93;;;2.53;;
10851;SDS011;5479;52.046;6.314;2023-05-20T09:43:34;6.13;;;2.60;;
10851;SDS011;5479;52.046;6.314;2023-05-20T09:46:03;6.93;;;2.72;;
10851;SDS011;5479;52.046;6.314;2023-05-20T09:48:31;5.63;;;3.08;;
10851;SDS011;5479;52.046;6.314;2023-05-20T09:51:02;4.53;;;2.50;;
10851;SDS011;5479;52.046;6.314;2023-05-20T09:53:33;5.15;;;2.70;;
10851;SDS011;5479;52.046;6.314;2023-05-20T09:56:02;4.43;;;2.67;;
10851;SDS011;5479;52.046;6.314;2023-05-20T09:58:31;4.82;;;2.50;;
10851;SDS011;5479;52.046;6.314;2023-05-20T10:01:02;5.50;;;2.80;;
10851;SDS011;5479;52.046;6.314;2023-05-20T10:03:30;5.93;;;2.63;;
10851;SDS011;5479;52.046;6.314;2023-05-20T10:06:13;6.47;;;2.80;;
10851;SDS011;5479;52.046;6.314;2023-05-20T10:08:57;4.55;;;2.60;;
10851;SDS011;5479;52.046;6.314;2023-05-20T10:11:37;7.43;;;3.00;;
10851;SDS011;5479;52.046;6.314;2023-05-20T10:14:19;5.88;;;2.78;;
10851;SDS011;5479;52.046;6.314;2023-05-20T10:16:56;5.50;;;2.67;;
10851;SDS011;5479;52.046;6.314;2023-05-20T10:19:35;3.88;;;2.50;;
10851;SDS011;5479;52.046;6.314;2023-05-20T10:22:03;4.40;;;2.53;;
10851;SDS011;5479;52.046;6.314;2023-05-20T10:24:37;5.50;;;2.95;;
10851;SDS011;5479;52.046;6.314;2023-05-20T10:27:07;4.60;;;2.50;;
10851;SDS011;5479;52.046;6.314;2023-05-20T10:29:43;5.10;;;2.40;;
10851;SDS011;5479;52.046;6.314;2023-05-20T10:32:22;8.07;;;2.50;;
10851;SDS011;5479;52.046;6.314;2023-05-20T10:34:51;4.45;;;2.60;;
10851;SDS011;5479;52.046;6.314;2023-05-20T10:37:22;4.65;;;2.47;;
10851;SDS011;5479;52.046;6.314;2023-05-20T10:40:04;4.22;;;2.47;;
10851;SDS011;5479;52.046;6.314;2023-05-20T10:42:33;3.97;;;2.40;;
10851;SDS011;5479;52.046;6.314;2023-05-20T10:45:01;3.80;;;2.40;;
10851;SDS011;5479;52.046;6.314;2023-05-20T10:47:29;4.78;;;2.33;;
10851;SDS011;5479;52.046;6.314;2023-05-20T10:49:58;3.80;;;2.63;;
10851;SDS011;5479;52.046;6.314;2023-05-20T10:52:27;4.25;;;2.63;;
10851;SDS011;5479;52.046;6.314;2023-05-20T10:55:00;5.10;;;2.50;;
10851;SDS011;5479;52.046;6.314;2023-05-20T10:57:30;5.78;;;2.42;;
10851;SDS011;5479;52.046;6.314;2023-05-20T10:59:58;5.55;;;2.70;;
10851;SDS011;5479;52.046;6.314;2023-05-20T11:02:27;3.78;;;2.70;;
10851;SDS011;5479;52.046;6.314;2023-05-20T11:04:55;5.38;;;2.80;;
10851;SDS011;5479;52.046;6.314;2023-05-20T11:07:24;6.75;;;2.83;;
10851;SDS011;5479;52.046;6.314;2023-05-20T11:09:53;5.97;;;2.22;;
10851;SDS011;5479;52.046;6.314;2023-05-20T11:12:22;5.03;;;2.45;;
10851;SDS011;5479;52.046;6.314;2023-05-20T11:14:52;6.07;;;2.58;;
10851;SDS011;5479;52.046;6.314;2023-05-20T11:17:20;4.13;;;2.28;;
10851;SDS011;5479;52.046;6.314;2023-05-20T11:19:49;4.32;;;2.38;;
10851;SDS011;5479;52.046;6.314;2023-05-20T11:22:17;4.40;;;2.40;;
10851;SDS011;5479;52.046;6.314;2023-05-20T11:24:44;4.90;;;2.40;;
10851;SDS011;5479;52.046;6.314;2023-05-20T11:27:12;5.13;;;2.40;;
10851;SDS011;5479;52.046;6.314;2023-05-20T11:29:40;4.85;;;2.30;;
10851;SDS011;5479;52.046;6.314;2023-05-20T11:32:10;4.13;;;2.28;;
10851;SDS011;5479;52.046;6.314;2023-05-20T11:34:39;4.28;;;2.25;;
10851;SDS011;5479;52.046;6.314;2023-05-20T11:37:08;5.63;;;2.78;;
10851;SDS011;5479;52.046;6.314;2023-05-20T11:39:38;4.40;;;2.17;;
10851;SDS011;5479;52.046;6.314;2023-05-20T11:42:06;3.67;;;2.25;;
10851;SDS011;5479;52.046;6.314;2023-05-20T11:44:34;3.47;;;2.20;;
10851;SDS011;5479;52.046;6.314;2023-05-20T11:47:03;5.00;;;2.28;;
10851;SDS011;5479;52.046;6.314;2023-05-20T11:49:39;5.20;;;2.42;;
10851;SDS011;5479;52.046;6.314;2023-05-20T11:52:07;4.65;;;2.30;;
10851;SDS011;5479;52.046;6.314;2023-05-20T11:54:36;4.70;;;2.40;;
10851;SDS011;5479;52.046;6.314;2023-05-20T11:57:05;4.68;;;2.40;;
10851;SDS011;5479;52.046;6.314;2023-05-20T11:59:32;4.05;;;2.40;;
10851;SDS011;5479;52.046;6.314;2023-05-20T12:02:01;4.95;;;2.60;;
10851;SDS011;5479;52.046;6.314;2023-05-20T12:04:29;7.75;;;2.83;;
10851;SDS011;5479;52.046;6.314;2023-05-20T12:06:58;5.57;;;2.47;;
10851;SDS011;5479;52.046;6.314;2023-05-20T12:09:27;3.60;;;2.40;;
10851;SDS011;5479;52.046;6.314;2023-05-20T12:11:55;6.03;;;2.60;;
10851;SDS011;5479;52.046;6.314;2023-05-20T12:14:22;3.80;;;2.53;;
10851;SDS011;5479;52.046;6.314;2023-05-20T12:16:51;5.40;;;2.60;;
10851;SDS011;5479;52.046;6.314;2023-05-20T12:19:19;3.83;;;2.60;;
10851;SDS011;5479;52.046;6.314;2023-05-20T12:21:47;3.88;;;2.30;;
10851;SDS011;5479;52.046;6.314;2023-05-20T12:24:16;4.95;;;2.65;;
10851;SDS011;5479;52.046;6.314;2023-05-20T12:26:44;4.97;;;2.30;;
10851;SDS011;5479;52.046;6.314;2023-05-20T12:29:12;3.83;;;2.60;;
10851;SDS011;5479;52.046;6.314;2023-05-20T12:31:39;4.50;;;2.40;;
10851;SDS011;5479;52.046;6.314;2023-05-20T12:34:07;7.72;;;2.70;;
10851;SDS011;5479;52.046;6.314;2023-05-20T12:36:36;5.43;;;2.70;;
10851;SDS011;5479;52.046;6.314;2023-05-20T12:39:04;5.18;;;2.83;;
10851;SDS011;5479;52.046;6.314;2023-05-20T12:41:34;5.47;;;2.53;;
10851;SDS011;5479;52.046;6.314;2023-05-20T12:44:01;3.97;;;2.40;;
10851;SDS011;5479;52.046;6.314;2023-05-20T12:46:30;5.47;;;2.80;;
10851;SDS011;5479;52.046;6.314;2023-05-20T12:48:58;3.88;;;2.50;;
10851;SDS011;5479;52.046;6.314;2023-05-20T12:51:26;3.17;;;2.13;;
10851;SDS011;5479;52.046;6.314;2023-05-20T12:53:54;6.47;;;2.53;;
10851;SDS011;5479;52.046;6.314;2023-05-20T12:56:22;5.97;;;2.45;;
10851;SDS011;5479;52.046;6.314;2023-05-20T12:58:53;5.03;;;2.63;;
10851;SDS011;5479;52.046;6.314;2023-05-20T13:01:20;4.93;;;2.40;;
10851;SDS011;5479;52.046;6.314;2023-05-20T13:03:48;4.53;;;2.35;;
10851;SDS011;5479;52.046;6.314;2023-05-20T13:06:18;4.38;;;2.55;;
10851;SDS011;5479;52.046;6.314;2023-05-20T13:08:46;6.68;;;2.58;;
10851;SDS011;5479;52.046;6.314;2023-05-20T13:11:14;6.43;;;2.50;;
10851;SDS011;5479;52.046;6.314;2023-05-20T13:13:42;5.00;;;2.55;;
10851;SDS011;5479;52.046;6.314;2023-05-20T13:16:11;4.82;;;2.58;;
10851;SDS011;5479;52.046;6.314;2023-05-20T13:18:39;6.32;;;2.63;;
10851;SDS011;5479;52.046;6.314;2023-05-20T13:21:07;4.82;;;2.20;;
10851;SDS011;5479;52.046;6.314;2023-05-20T13:23:35;4.95;;;2.40;;
10851;SDS011;5479;52.046;6.314;2023-05-20T13:26:03;4.63;;;2.40;;
10851;SDS011;5479;52.046;6.314;2023-05-20T13:28:35;3.42;;;2.28;;
10851;SDS011;5479;52.046;6.314;2023-05-20T13:31:03;6.65;;;2.55;;
10851;SDS011;5479;52.046;6.314;2023-05-20T13:33:33;4.78;;;2.22;;
10851;SDS011;5479;52.046;6.314;2023-05-20T13:36:02;6.32;;;2.30;;
10851;SDS011;5479;52.046;6.314;2023-05-20T13:38:30;7.47;;;2.40;;
10851;SDS011;5479;52.046;6.314;2023-05-20T13:40:58;4.85;;;2.08;;
10851;SDS011;5479;52.046;6.314;2023-05-20T13:43:26;3.63;;;2.05;;
10851;SDS011;5479;52.046;6.314;2023-05-20T13:45:54;5.13;;;2.60;;
10851;SDS011;5479;52.046;6.314;2023-05-20T13:48:22;4.65;;;2.30;;
10851;SDS011;5479;52.046;6.314;2023-05-20T13:50:51;4.30;;;2.22;;
10851;SDS011;5479;52.046;6.314;2023-05-20T13:53:19;8.68;;;2.22;;
10851;SDS011;5479;52.046;6.314;2023-05-20T13:55:47;5.63;;;2.33;;
10851;SDS011;5479;52.046;6.314;2023-05-20T13:58:15;4.68;;;2.28;;
10851;SDS011;5479;52.046;6.314;2023-05-20T14:00:44;3.58;;;2.28;;
10851;SDS011;5479;52.046;6.314;2023-05-20T14:03:12;4.82;;;2.33;;
10851;SDS011;5479;52.046;6.314;2023-05-20T14:05:40;3.95;;;2.17;;
10851;SDS011;5479;52.046;6.314;2023-05-20T14:08:09;5.38;;;2.40;;
10851;SDS011;5479;52.046;6.314;2023-05-20T14:10:38;3.83;;;2.20;;
10851;SDS011;5479;52.046;6.314;2023-05-20T14:13:06;8.63;;;2.33;;
10851;SDS011;5479;52.046;6.314;2023-05-20T14:15:36;4.22;;;2.10;;
10851;SDS011;5479;52.046;6.314;2023-05-20T14:18:03;4.30;;;2.10;;
10851;SDS011;5479;52.046;6.314;2023-05-20T14:20:31;4.00;;;2.13;;
10851;SDS011;5479;52.046;6.314;2023-05-20T14:22:59;4.68;;;2.47;;
10851;SDS011;5479;52.046;6.314;2023-05-20T14:25:28;4.60;;;2.03;;
10851;SDS011;5479;52.046;6.314;2023-05-20T14:27:56;5.63;;;2.00;;
10851;SDS011;5479;52.046;6.314;2023-05-20T14:30:24;5.35;;;2.28;;
10851;SDS011;5479;52.046;6.314;2023-05-20T14:32:52;3.92;;;2.53;;
10851;SDS011;5479;52.046;6.314;2023-05-20T14:35:20;4.30;;;2.22;;
10851;SDS011;5479;52.046;6.314;2023-05-20T14:37:48;4.90;;;2.25;;
10851;SDS011;5479;52.046;6.314;2023-05-20T14:40:16;4.20;;;2.20;;
10851;SDS011;5479;52.046;6.314;2023-05-20T14:42:45;4.82;;;2.33;;
10851;SDS011;5479;52.046;6.314;2023-05-20T14:45:13;5.85;;;2.10;;
10851;SDS011;5479;52.046;6.314;2023-05-20T14:47:41;5.63;;;2.30;;
10851;SDS011;5479;52.046;6.314;2023-05-20T14:50:09;3.60;;;2.25;;
10851;SDS011;5479;52.046;6.314;2023-05-20T14:52:37;5.90;;;2.22;;
10851;SDS011;5479;52.046;6.314;2023-05-20T14:55:05;5.85;;;2.40;;
10851;SDS011;5479;52.046;6.314;2023-05-20T14:57:34;4.85;;;2.20;;
10851;SDS011;5479;52.046;6.314;2023-05-20T15:00:04;9.98;;;4.55;;
10851;SDS011;5479;52.046;6.314;2023-05-20T15:02:33;3.70;;;2.08;;
10851;SDS011;5479;52.046;6.314;2023-05-20T15:05:01;4.68;;;2.08;;
10851;SDS011;5479;52.046;6.314;2023-05-20T15:07:29;4.53;;;2.08;;
10851;SDS011;5479;52.046;6.314;2023-05-20T15:09:59;6.00;;;2.33;;